Time;durP1;ratioP1;P1;durP2;ratioP2;P2;SDS_P1;SDS_P2;PMS_P1;PMS_P2;Temp;Humidity;BMP_temperature;BMP_pressure;BME280_temperature;BME280_humidity;BME280_pressure;Samples;Min_cycle;Max_cycle;Signal;HPM_P1;HPM_P2
2023/03/31 17:05:51;;;;;;;46.38;11.48;;;20.10;99.90;;;;;;5066424;28;20477;-63
2023/03/31 17:08:18;;;;;;;42.22;10.80;;;18.20;99.90;;;;;;5069030;28;20025;-63
2023/03/31 17:10:57;;;;;;;46.00;11.43;;;17.10;99.90;;;;;;5069206;28;20381;-64
2023/03/31 17:13:22;;;;;;;46.00;11.15;;;17.30;99.90;;;;;;5069293;28;20033;-64
2023/03/31 17:15:48;;;;;;;51.72;11.68;;;16.90;99.90;;;;;;5068708;28;20040;-64
2023/03/31 17:18:15;;;;;;;46.50;11.48;;;17.10;99.90;;;;;;5068989;28;20028;-64
2023/03/31 17:20:41;;;;;;;46.45;11.88;;;17.00;99.90;;;;;;5068789;28;20513;-64
2023/03/31 17:23:07;;;;;;;47.25;12.52;;;16.80;99.90;;;;;;5069036;28;20035;-63
2023/03/31 17:25:35;;;;;;;47.50;12.70;;;16.60;99.90;;;;;;5068392;28;20095;-63
2023/03/31 17:28:03;;;;;;;48.15;13.20;;;16.60;99.90;;;;;;5068711;28;20056;-64
2023/03/31 17:30:29;;;;;;;47.28;12.18;;;16.80;99.90;;;;;;5068859;28;20036;-63
2023/03/31 17:32:55;;;;;;;53.45;13.32;;;16.90;99.90;;;;;;5068692;28;20112;-64
2023/03/31 17:35:21;;;;;;;54.38;12.40;;;17.00;99.90;;;;;;5069054;28;20570;-63
2023/03/31 17:37:52;;;;;;;54.78;12.77;;;16.00;99.90;;;;;;5068157;28;20047;-64
2023/03/31 17:40:22;;;;;;;45.55;12.45;;;15.80;99.90;;;;;;5067583;28;20486;-63
2023/03/31 17:42:48;;;;;;;52.10;13.35;;;15.50;99.90;;;;;;5068346;28;20025;-64
2023/03/31 17:45:14;;;;;;;54.00;12.43;;;15.30;99.90;;;;;;5068293;28;20048;-63
2023/03/31 17:47:40;;;;;;;58.03;14.57;;;15.40;99.90;;;;;;5068834;28;20032;-63
2023/03/31 17:50:07;;;;;;;66.55;15.18;;;15.30;99.90;;;;;;5068600;28;20496;-63
2023/03/31 17:52:34;;;;;;;54.60;13.02;;;15.00;99.90;;;;;;5068363;28;20029;-64
2023/03/31 17:55:01;;;;;;;54.25;13.20;;;15.10;99.90;;;;;;5067924;28;20503;-63
2023/03/31 17:57:27;;;;;;;56.38;13.23;;;15.20;99.90;;;;;;5068473;28;20033;-63
2023/03/31 17:59:53;;;;;;;48.28;13.25;;;15.00;99.90;;;;;;5068217;28;20021;-63
2023/03/31 18:02:18;;;;;;;49.60;11.93;;;14.90;99.90;;;;;;5068302;28;20033;-63
2023/03/31 18:04:44;;;;;;;51.70;13.45;;;14.80;99.90;;;;;;5067871;28;20048;-63
2023/03/31 18:07:10;;;;;;;58.58;12.70;;;14.80;99.90;;;;;;5068625;28;20385;-63
2023/03/31 18:09:36;;;;;;;54.67;13.02;;;14.60;99.90;;;;;;5067571;28;20032;-63
2023/03/31 18:12:02;;;;;;;58.60;13.70;;;14.70;99.90;;;;;;5067717;28;20094;-63
2023/03/31 18:14:29;;;;;;;54.75;12.80;;;14.70;99.90;;;;;;5068049;28;20056;-63
2023/03/31 18:16:55;;;;;;;53.85;11.82;;;14.60;99.90;;;;;;5056547;28;20056;-64
2023/03/31 18:19:21;;;;;;;53.88;12.40;;;14.60;99.90;;;;;;5054453;28;20053;-64
2023/03/31 18:21:47;;;;;;;53.08;12.63;;;14.40;99.90;;;;;;5054438;28;20520;-63
2023/03/31 18:24:13;;;;;;;49.63;12.25;;;14.40;99.90;;;;;;5054092;28;20029;-63
2023/03/31 18:26:38;;;;;;;52.30;12.00;;;14.20;99.90;;;;;;5054351;28;20039;-63
2023/03/31 18:29:04;;;;;;;56.30;12.23;;;14.30;99.90;;;;;;5054741;28;20473;-63
2023/03/31 18:31:30;;;;;;;52.42;12.43;;;14.10;99.90;;;;;;5054559;28;20029;-63
2023/03/31 18:33:56;;;;;;;50.67;12.43;;;14.30;99.90;;;;;;5054568;28;20037;-63
2023/03/31 18:36:22;;;;;;;45.92;11.25;;;14.20;99.90;;;;;;5054321;28;20108;-63
2023/03/31 18:38:49;;;;;;;53.47;12.77;;;14.10;99.90;;;;;;5054195;28;20024;-63
2023/03/31 18:41:19;;;;;;;48.53;12.07;;;14.00;99.90;;;;;;5054978;28;20389;-63
2023/03/31 18:43:46;;;;;;;51.78;12.70;;;14.10;99.90;;;;;;5054115;28;20029;-63
2023/03/31 18:46:13;;;;;;;51.50;12.52;;;14.20;99.90;;;;;;5054300;28;20033;-63
2023/03/31 18:48:40;;;;;;;60.55;13.18;;;14.10;99.90;;;;;;5053665;28;20025;-61
2023/03/31 18:51:07;;;;;;;54.17;13.25;;;14.20;99.90;;;;;;5053048;28;20450;-63
2023/03/31 18:53:33;;;;;;;54.00;12.85;;;14.00;99.90;;;;;;5051952;28;20025;-62
2023/03/31 18:56:00;;;;;;;55.53;12.73;;;14.00;99.90;;;;;;5052731;28;20032;-63
2023/03/31 18:58:28;;;;;;;56.70;12.85;;;13.90;99.90;;;;;;5052904;28;20048;-63
2023/03/31 19:00:54;;;;;;;49.80;12.40;;;13.90;99.90;;;;;;5053771;28;20025;-62
2023/03/31 19:03:21;;;;;;;56.30;13.20;;;13.90;99.90;;;;;;5053568;28;20370;-63
2023/03/31 19:05:46;;;;;;;55.95;12.93;;;13.90;99.90;;;;;;5035680;28;20393;-63
2023/03/31 19:08:12;;;;;;;61.30;13.52;;;13.80;99.90;;;;;;5053282;28;20028;-63
2023/03/31 19:10:38;;;;;;;52.50;12.48;;;13.80;99.90;;;;;;5053679;28;20490;-63
2023/03/31 19:13:04;;;;;;;58.30;13.32;;;13.90;99.90;;;;;;5053513;28;20036;-63
2023/03/31 19:15:30;;;;;;;58.70;13.35;;;13.70;99.90;;;;;;5053465;28;20087;-62
2023/03/31 19:17:56;;;;;;;60.75;14.05;;;13.80;99.90;;;;;;5053340;28;20025;-63
2023/03/31 19:20:21;;;;;;;59.65;13.13;;;13.70;99.90;;;;;;5053498;28;20033;-63
2023/03/31 19:22:49;;;;;;;56.00;13.20;;;13.70;99.90;;;;;;5053206;28;20036;-62
2023/03/31 19:25:17;;;;;;;54.90;13.23;;;13.70;99.90;;;;;;5053007;28;20037;-62
2023/03/31 19:27:44;;;;;;;53.50;12.77;;;13.80;99.90;;;;;;5052246;28;20063;-63
2023/03/31 19:30:18;;;;;;;60.03;13.55;;;13.80;99.90;;;;;;5053382;28;20029;-63
2023/03/31 19:32:45;;;;;;;56.08;13.13;;;13.70;99.90;;;;;;5053060;28;20025;-63
2023/03/31 19:35:11;;;;;;;53.75;12.23;;;13.70;99.90;;;;;;5052404;28;20155;-62
2023/03/31 19:37:37;;;;;;;56.05;12.35;;;13.70;99.90;;;;;;5053167;28;20100;-63
2023/03/31 19:40:04;;;;;;;54.10;12.73;;;13.60;99.90;;;;;;5053066;28;20029;-62
2023/03/31 19:42:32;;;;;;;57.05;12.93;;;13.70;99.90;;;;;;5053111;28;20392;-62
2023/03/31 19:44:58;;;;;;;51.72;12.30;;;13.70;99.90;;;;;;5052773;28;20048;-63
2023/03/31 19:47:23;;;;;;;64.35;13.75;;;13.60;99.90;;;;;;5052948;28;20029;-63
2023/03/31 19:49:49;;;;;;;56.78;13.45;;;13.60;99.90;;;;;;5053144;28;20020;-62
2023/03/31 19:52:15;;;;;;;56.95;12.38;;;13.60;99.90;;;;;;5053016;28;20028;-62
2023/03/31 19:54:40;;;;;;;57.97;12.45;;;13.50;99.90;;;;;;5052558;28;20118;-63
2023/03/31 19:57:07;;;;;;;55.88;12.43;;;13.60;99.90;;;;;;5052553;28;20025;-62
2023/03/31 19:59:34;;;;;;;54.50;12.45;;;13.60;99.90;;;;;;5052644;28;20108;-62
2023/03/31 20:02:01;;;;;;;63.08;12.93;;;13.60;99.90;;;;;;5052636;28;20370;-62
2023/03/31 20:04:27;;;;;;;57.33;12.98;;;13.60;99.90;;;;;;5051515;28;20049;-62
2023/03/31 20:06:53;;;;;;;51.85;11.95;;;13.50;99.90;;;;;;5052613;28;20052;-62
2023/03/31 20:09:19;;;;;;;58.28;12.32;;;13.60;99.90;;;;;;5052754;28;20045;-63
2023/03/31 20:11:46;;;;;;;54.72;12.88;;;13.60;99.90;;;;;;5052762;28;20426;-63
2023/03/31 20:14:13;;;;;;;54.45;13.07;;;13.60;99.90;;;;;;5052673;28;20039;-63
2023/03/31 20:16:40;;;;;;;59.78;13.70;;;13.70;99.90;;;;;;5052441;28;20044;-63
2023/03/31 20:19:06;;;;;;;60.63;13.35;;;13.60;99.90;;;;;;5052144;28;20025;-63
2023/03/31 20:21:35;;;;;;;57.53;12.30;;;13.60;99.90;;;;;;5052449;28;20474;-63
2023/03/31 20:24:01;;;;;;;64.07;14.82;;;13.60;99.90;;;;;;5052352;28;20045;-63
2023/03/31 20:26:29;;;;;;;60.03;13.20;;;13.70;99.90;;;;;;5052460;28;20559;-62
2023/03/31 20:28:56;;;;;;;57.65;13.07;;;13.70;99.90;;;;;;5052901;28;20056;-62
2023/03/31 20:31:28;;;;;;;58.40;13.63;;;13.60;99.90;;;;;;5052298;28;20583;-62
2023/03/31 20:33:55;;;;;;;55.55;13.07;;;13.70;99.90;;;;;;5051879;28;20071;-62
2023/03/31 20:36:24;;;;;;;58.38;13.02;;;13.60;99.90;;;;;;5052327;28;20021;-62
2023/03/31 20:38:51;;;;;;;58.42;13.18;;;13.70;99.90;;;;;;5052014;28;20132;-62
2023/03/31 20:41:19;;;;;;;61.80;14.02;;;13.60;99.90;;;;;;5052399;28;20021;-63
2023/03/31 20:43:46;;;;;;;51.58;12.48;;;13.60;99.90;;;;;;5052018;28;20035;-62
2023/03/31 20:46:13;;;;;;;53.33;12.55;;;13.70;99.90;;;;;;5052218;28;20479;-63
2023/03/31 20:48:41;;;;;;;54.30;11.95;;;13.60;99.90;;;;;;5051698;28;20032;-63
2023/03/31 20:51:09;;;;;;;53.55;12.20;;;13.60;99.90;;;;;;5052627;28;20031;-62
2023/03/31 20:53:40;;;;;;;48.97;11.18;;;13.50;99.90;;;;;;5052219;28;20093;-62
2023/03/31 20:56:11;;;;;;;44.30;11.18;;;13.50;99.90;;;;;;5052154;28;20033;-62
2023/03/31 20:58:37;;;;;;;41.20;10.75;;;13.50;99.90;;;;;;5052135;28;20023;-63
2023/03/31 21:01:05;;;;;;;52.22;11.68;;;13.50;99.90;;;;;;5051987;28;20029;-63
2023/03/31 21:03:31;;;;;;;42.40;10.77;;;13.40;99.90;;;;;;5051282;28;20079;-62
2023/03/31 21:06:01;;;;;;;46.38;11.63;;;13.40;99.90;;;;;;5051867;28;20035;-63
2023/03/31 21:08:27;;;;;;;53.42;12.45;;;13.50;99.90;;;;;;5051955;28;20048;-62
2023/03/31 21:10:57;;;;;;;51.80;12.25;;;13.50;99.90;;;;;;5050535;28;20025;-62
2023/03/31 21:13:24;;;;;;;49.03;10.93;;;13.50;99.90;;;;;;5052301;28;20025;-63
2023/03/31 21:15:53;;;;;;;53.35;12.10;;;13.40;99.90;;;;;;5051954;28;20788;-62
2023/03/31 21:18:19;;;;;;;52.58;12.45;;;13.40;99.90;;;;;;5051499;28;20105;-62
2023/03/31 21:20:52;;;;;;;50.15;11.75;;;13.40;99.90;;;;;;5051619;28;20040;-63
2023/03/31 21:23:19;;;;;;;51.15;11.50;;;13.40;99.90;;;;;;5051234;28;20036;-63
2023/03/31 21:25:47;;;;;;;54.60;11.60;;;13.40;99.90;;;;;;5051569;28;20041;-63
2023/03/31 21:28:14;;;;;;;53.30;12.70;;;13.50;99.90;;;;;;5050358;28;20021;-63
2023/03/31 21:31:00;;;;;;;52.78;12.18;;;13.40;99.90;;;;;;5052067;28;20029;-63
2023/03/31 21:33:27;;;;;;;51.53;12.68;;;13.40;99.90;;;;;;5051678;28;20116;-63
2023/03/31 21:35:55;;;;;;;52.42;11.95;;;13.50;99.90;;;;;;5051812;28;20500;-63
2023/03/31 21:38:21;;;;;;;47.65;11.48;;;13.40;99.90;;;;;;5051483;28;20021;-62
2023/03/31 21:40:48;;;;;;;49.83;11.15;;;13.50;99.90;;;;;;5051543;28;20025;-62
2023/03/31 21:43:14;;;;;;;46.03;10.80;;;13.40;99.90;;;;;;5050418;28;20385;-63
2023/03/31 21:45:40;;;;;;;42.78;10.18;;;13.40;99.90;;;;;;5050548;28;20037;-63
2023/03/31 21:48:08;;;;;;;41.00;10.52;;;13.40;99.90;;;;;;5051063;28;20424;-63
2023/03/31 21:50:35;;;;;;;48.72;12.02;;;13.40;99.90;;;;;;5051856;28;20103;-63
2023/03/31 21:53:03;;;;;;;49.50;11.10;;;13.40;99.90;;;;;;5055893;28;20025;-63
2023/03/31 21:55:30;;;;;;;43.35;11.20;;;13.40;99.90;;;;;;5055184;28;20027;-63
2023/03/31 21:57:55;;;;;;;47.40;11.27;;;13.30;99.90;;;;;;5055345;28;20083;-63
2023/03/31 22:00:21;;;;;;;52.00;11.88;;;13.30;99.90;;;;;;5054674;28;20032;-63
2023/03/31 22:02:47;;;;;;;51.22;12.02;;;13.40;99.90;;;;;;5055516;28;20032;-63
2023/03/31 22:05:13;;;;;;;50.67;11.93;;;13.40;99.90;;;;;;5054628;28;20053;-63
2023/03/31 22:07:39;;;;;;;49.45;11.80;;;13.40;99.90;;;;;;5055146;28;20017;-63
2023/03/31 22:10:05;;;;;;;55.65;12.18;;;13.40;99.90;;;;;;5054677;28;20033;-63
2023/03/31 22:12:31;;;;;;;57.33;12.13;;;13.30;99.90;;;;;;5054902;28;20036;-63
2023/03/31 22:14:57;;;;;;;51.97;12.07;;;13.30;99.90;;;;;;5054866;28;20517;-63
2023/03/31 22:17:23;;;;;;;50.92;11.30;;;13.40;99.90;;;;;;5055055;28;20021;-63
2023/03/31 22:19:49;;;;;;;54.03;11.68;;;13.20;99.90;;;;;;5054628;28;20485;-63
2023/03/31 22:22:15;;;;;;;47.47;10.95;;;13.20;99.90;;;;;;5054807;28;20036;-63
2023/03/31 22:24:41;;;;;;;50.88;11.32;;;13.20;99.90;;;;;;5054585;28;20094;-62
2023/03/31 22:27:07;;;;;;;49.65;10.73;;;13.20;99.90;;;;;;5054639;28;20481;-62
2023/03/31 22:29:32;;;;;;;48.95;10.85;;;13.20;99.90;;;;;;5054434;28;20040;-63
2023/03/31 22:31:58;;;;;;;47.17;11.13;;;13.20;99.90;;;;;;5054603;28;20060;-63
2023/03/31 22:34:24;;;;;;;44.60;10.32;;;13.20;99.90;;;;;;5054836;28;20029;-63
2023/03/31 22:36:50;;;;;;;49.85;11.02;;;13.20;99.90;;;;;;5054702;28;20060;-63
2023/03/31 22:39:16;;;;;;;48.22;10.77;;;13.20;99.90;;;;;;5054561;28;20029;-62
2023/03/31 22:41:43;;;;;;;43.40;9.10;;;13.20;99.90;;;;;;5054317;28;20036;-63
2023/03/31 22:44:09;;;;;;;38.00;9.63;;;13.20;99.90;;;;;;5053760;28;20036;-63
2023/03/31 22:46:37;;;;;;;35.03;8.60;;;13.20;99.90;;;;;;5054253;28;20111;-63
2023/03/31 22:49:03;;;;;;;39.63;8.73;;;13.20;99.90;;;;;;5054735;28;20039;-62
2023/03/31 22:51:29;;;;;;;37.25;9.13;;;13.20;99.90;;;;;;5054245;28;20477;-62
2023/03/31 22:53:55;;;;;;;37.97;9.27;;;13.20;99.90;;;;;;5054187;28;20029;-63
2023/03/31 22:56:22;;;;;;;39.60;10.18;;;13.10;99.90;;;;;;5054196;28;20375;-63
2023/03/31 22:58:49;;;;;;;42.53;10.20;;;13.10;99.90;;;;;;5053798;28;20104;-63
2023/03/31 23:01:17;;;;;;;38.70;9.40;;;13.10;99.90;;;;;;5054052;28;20512;-63
2023/03/31 23:03:43;;;;;;;37.05;9.27;;;13.10;99.90;;;;;;5053767;28;20037;-64
2023/03/31 23:06:11;;;;;;;39.22;9.07;;;13.10;99.90;;;;;;5054164;28;20068;-63
2023/03/31 23:08:37;;;;;;;41.30;9.40;;;13.10;99.90;;;;;;5054072;28;20542;-63
2023/03/31 23:11:08;;;;;;;41.05;10.15;;;13.00;99.90;;;;;;5053683;28;20496;-63
2023/03/31 23:13:34;;;;;;;42.38;9.63;;;13.00;99.90;;;;;;5053435;28;20021;-63
2023/03/31 23:16:15;;;;;;;39.05;9.18;;;13.00;99.90;;;;;;5054153;28;20054;-63
2023/03/31 23:18:45;;;;;;;40.70;9.32;;;13.00;99.90;;;;;;5053808;28;20025;-63
2023/03/31 23:21:12;;;;;;;41.35;8.77;;;12.90;99.90;;;;;;5053515;28;20025;-63
2023/03/31 23:23:37;;;;;;;36.30;8.93;;;12.90;99.90;;;;;;5053701;28;20108;-63
2023/03/31 23:26:05;;;;;;;40.97;9.95;;;12.90;99.90;;;;;;5053690;28;20103;-62
2023/03/31 23:28:32;;;;;;;42.92;9.48;;;12.80;99.90;;;;;;5053167;28;20100;-63
2023/03/31 23:30:58;;;;;;;43.40;9.25;;;12.90;99.90;;;;;;5053693;28;20029;-63
2023/03/31 23:33:25;;;;;;;44.88;9.77;;;13.00;99.90;;;;;;5053518;28;20025;-63
2023/03/31 23:35:52;;;;;;;39.90;9.20;;;12.90;99.90;;;;;;5053413;28;20079;-63
2023/03/31 23:38:18;;;;;;;43.05;10.20;;;12.90;99.90;;;;;;5053639;28;20047;-63
2023/03/31 23:40:45;;;;;;;39.42;8.98;;;13.00;99.90;;;;;;5053584;28;20204;-63
2023/03/31 23:43:12;;;;;;;49.70;10.88;;;12.90;99.90;;;;;;5052720;28;20036;-63
2023/03/31 23:45:37;;;;;;;51.97;11.45;;;12.90;99.90;;;;;;5053283;28;20041;-62
2023/03/31 23:48:03;;;;;;;45.92;10.00;;;12.90;99.90;;;;;;5053254;28;20355;-63
2023/03/31 23:50:30;;;;;;;52.30;11.10;;;12.90;99.90;;;;;;5053474;28;20036;-63
2023/03/31 23:52:58;;;;;;;48.35;10.65;;;12.90;99.90;;;;;;5053136;28;20021;-62
2023/03/31 23:55:24;;;;;;;48.08;10.23;;;13.00;99.90;;;;;;5053053;28;20037;-63
2023/03/31 23:57:50;;;;;;;48.95;10.73;;;12.90;99.90;;;;;;5052506;28;20032;-63
